Midway, AR (72651)

10:28 AM CDT on July 31, 2015 (GMT -0500)
APRSWXNET | | Change Station
CLOSE
Current Station
Personal Weather Station
Location: Gassville, AR
Elevation: 1115 ft
Nearby Weather Stations

Elev 1115 ft 36.26 °N, 92.49 °W | Updated 24 minutes ago

Clear
Clear
79 °F
Feels Like 82 °F
N
0
Wind Variable Wind from NE
Gusts 0.0 mph

Today
High -- | Low -- °F
--% Chance of Precip.
Yesterday
High -- | Low -- °F
Precip. -- in
6:15 AM 8:16 PM
Full, 100% visible
Pressure 30.14 in
Visibility 10.0 miles
Clouds Clear
Heat Index 82 °F
Dew Point 71 °F
Humidity 76%
Rainfall in
Snow Depth Not available.
UV 5 out of 12
Pollen 6.20 out of 12
Air Quality Not available.
Flu Activity Not available.
METAR KBPK 311453Z AUTO 00000KT 10SM CLR 26/20 A3017 RMK AO2 SLP205 T02610200 50000

More Conditions Fewer Conditions

Pressure 30.14 in
Visibility 10.0 miles
Clouds Clear
Heat Index 82 °F
Dew Point 71 °F
Humidity 76%
Rainfall in
Snow Depth Not available.
UV 5 out of 12
Pollen 6.20 out of 12
Air Quality Not available.
Flu Activity Not available.
METAR KBPK 311453Z AUTO 00000KT 10SM CLR 26/20 A3017 RMK AO2 SLP205 T02610200 50000

More Conditions Fewer Conditions

10-Day Weather Forecast

×

Almanac

Astronomy

Jul. 31, 2015 Rise Set
Actual Time
Civil Twilight
Nautical Twilight
Astronomical Twilight
Moon
Length of Visible Light
Length of Day
Tomorrow will be .
, % of the Moon is Illuminated

Today's Extremes

State Highs State Lows

Community

WunderPhotos

Upload Photos

1,842,670 photos uploaded!

WunderBlogs® & News

Nearby

Air Quality

  Air Quality AQ Index Pollutant
Not available.

Snow Depth

Station Depth Elevation

Earthquake Activity

City Distance Mag. Time & Date
Minimum magnitude displayed is 2.5.

Coastal Water Temperatures

Place Temperature

Stations

Nearby Weather Stations

Station Location Temp. Windchill Dew Point Humidity Wind Precip. Elev Updated Type